Create Tblcommutelog Verified Points Advance Search
| # | Trip ID | Id Commuter | Trip Date | Trip Num | Current Lat | Current Lng | Delta Distance | Current Time | Activity | Activity Confidence | Current Speed | |
|---|---|---|---|---|---|---|---|---|---|---|---|---|
| 71521 | 250908_788077_16505268_0631 | 788077 | (not set) | (not set) | 38.884542514801 | -77.223652027321 | 12.1615 | 2025-09-08 06:47:01 | unknown | 100 | 12.333813155471 | |
| 71522 | 250908_788222_16468806_0626 | 788222 | (not set) | (not set) | 38.878295602466 | -77.267017481182 | 19.0207 | 2025-09-08 06:47:02 | unknown | 100 | 15.552495820183 | |
| 71523 | 250908_770872_16486958_0631 | 770872 | (not set) | (not set) | 39.271087589309 | -76.648520400164 | 11.8948 | 2025-09-08 06:47:02 | in_vehicle | 100 | 12.883671444026 | |
| 71524 | 250908_781236_16513374_0642 | 781236 | (not set) | (not set) | 38.949260659863 | -77.027020630201 | 1.1313 | 2025-09-08 06:47:03 | unknown | 100 | 4.8101424267079 | |
| 71525 | 250908_781236_16513374_0642 | 781236 | (not set) | (not set) | 38.949260659863 | -77.027020630201 | 1.1313 | 2025-09-08 06:47:03 | unknown | 100 | 4.8101424267079 | |
| 71526 | 250908_781236_16513374_0642 | 781236 | (not set) | (not set) | 38.949260659863 | -77.027020630201 | 1.1313 | 2025-09-08 06:47:03 | unknown | 100 | 4.8101424267079 | |
| 71527 | 250908_787617_6461772_0629 | 787617 | (not set) | (not set) | 39.133475526626 | -76.857173658167 | 10.0195 | 2025-09-08 06:47:03 | in_vehicle | 100 | 12.096882348208 | |
| 71528 | 250908_786735_16476445_0607 | 786735 | (not set) | (not set) | 38.966932628704 | -76.855543992741 | 29.4112 | 2025-09-08 06:47:03 | unknown | 100 | -0.44703925898772 | |
| 71529 | 250908_780517_6438333_0633 | 780517 | (not set) | (not set) | 38.885509056142 | -77.015236893952 | 1.9669 | 2025-09-08 06:47:04 | in_vehicle | 100 | -0.44703925898772 | |
| 71530 | 250908_788423_16505268_0632 | 788423 | (not set) | (not set) | 38.885021766402 | -77.222422911754 | 12.7426 | 2025-09-08 06:47:05 | unknown | 100 | 11.66772465958 | |
| 71531 | 250908_786037_16514424_0641 | 786037 | (not set) | (not set) | 38.8851029 | -77.2221907 | 6.0648 | 2025-09-08 06:47:06 | in_vehicle | 100 | 10.903287526711 | |
| 71532 | 250908_785790_16443766_0630 | 785790 | (not set) | (not set) | 39.289740671586 | -76.601000258707 | 1.9536 | 2025-09-08 06:47:06 | in_vehicle | 100 | 4.9487245969941 | |
| 71533 | 250908_788475_16428771_0516 | 788475 | (not set) | (not set) | 38.853011593627 | -76.974808118093 | 51.2259 | 2025-09-08 06:47:06 | in_vehicle | 100 | 1.5825189768165 | |
| 71534 | 250908_786113_16505268_0631 | 786113 | (not set) | (not set) | 38.885105303517 | -77.222168863626 | 12.5687 | 2025-09-08 06:47:06 | in_vehicle | 100 | 11.104455193255 | |
| 71535 | 250908_762140_16491788_0626 | 762140 | (not set) | (not set) | 38.531392887878 | -77.359085763929 | 16.2982 | 2025-09-08 06:47:06 | in_vehicle | 100 | 14.774647509544 | |
| 71536 | 250908_720669_16491788_0634 | 720669 | (not set) | (not set) | 38.783239938784 | -77.178829654808 | 2.6812 | 2025-09-08 06:47:07 | in_vehicle | 100 | 12.159467844466 | |
| 71537 | 250908_788395_16500126_0634 | 788395 | (not set) | (not set) | 38.868284917356 | -77.310338334674 | 3.198 | 2025-09-08 06:47:08 | in_vehicle | 100 | 12.096882348208 | |
| 71538 | 250908_769092_16489920_0631 | 769092 | (not set) | (not set) | 38.878463947715 | -77.264267276924 | 18.849 | 2025-09-08 06:47:09 | in_vehicle | 100 | 15.199334805583 | |
| 71539 | 250908_783292_16499526_0633 | 783292 | (not set) | (not set) | 38.883355682195 | -77.108513549696 | 5.532 | 2025-09-08 06:47:09 | still | 33 | -0.44703925898772 | |
| 71540 | 250908_783292_16499526_0633 | 783292 | (not set) | (not set) | 38.883355682195 | -77.108513549696 | 5.532 | 2025-09-08 06:47:09 | still | 33 | -0.44703925898772 |